Time;durP1;ratioP1;P1;durP2;ratioP2;P2;SDS_P1;SDS_P2;PMS_P1;PMS_P2;Temp;Humidity;BMP_temperature;BMP_pressure;BME280_temperature;BME280_humidity;BME280_pressure;Samples;Min_cycle;Max_cycle;Signal;HPM_P1;HPM_P2
2021/03/08 00:02:49;;;;;;;10.97;7.50;;;;;;;4.78;44.28;98182.47;8343659;28;20744;-84
2021/03/08 00:06:53;;;;;;;11.03;7.30;;;;;;;4.79;44.27;98182.44;8344749;28;20255;-83
2021/03/08 00:10:55;;;;;;;8.50;7.60;;;;;;;4.81;44.69;98178.13;8343232;28;20220;-83
2021/03/08 00:14:57;;;;;;;8.27;7.47;;;;;;;4.73;44.41;98176.59;8345032;28;20197;-83
2021/03/08 00:19:00;;;;;;;11.13;8.83;;;;;;;4.71;44.45;98181.75;8343944;28;20208;-84
2021/03/08 00:23:03;;;;;;;8.30;7.40;;;;;;;4.62;44.98;98192.16;8342355;28;20205;-84
2021/03/08 00:27:06;;;;;;;9.27;8.20;;;;;;;4.74;45.08;98185.97;8333239;28;20228;-84
2021/03/08 00:31:08;;;;;;;8.57;7.73;;;;;;;4.52;45.07;98176.09;8343601;28;20239;-84
2021/03/08 00:35:11;;;;;;;8.87;8.07;;;;;;;4.53;44.91;98202.56;8345116;28;20671;-84
2021/03/08 00:39:14;;;;;;;10.30;9.17;;;;;;;4.54;44.72;98192.28;8344286;28;20212;-84
2021/03/08 00:43:16;;;;;;;10.50;9.40;;;;;;;4.51;45.03;98189.75;8347171;28;20649;-85
2021/03/08 00:47:19;;;;;;;11.10;9.10;;;;;;;4.37;45.19;98192.56;8327813;28;20270;-83
2021/03/08 00:51:21;;;;;;;9.27;8.30;;;;;;;4.36;45.60;98201.16;8344726;28;20564;-83
2021/03/08 00:55:24;;;;;;;11.53;9.17;;;;;;;4.36;45.60;98192.59;8344623;28;20200;-83
2021/03/08 00:59:26;;;;;;;10.37;9.17;;;;;;;4.39;45.58;98188.25;8351324;28;20242;-82
2021/03/08 01:03:29;;;;;;;10.80;9.00;;;;;;;4.39;45.71;98189.97;8369160;28;20256;-84
2021/03/08 01:07:31;;;;;;;11.83;8.90;;;;;;;4.33;45.98;98195.22;8379477;28;20278;-84
2021/03/08 01:11:35;;;;;;;11.47;8.93;;;;;;;4.34;45.98;98194.31;8362369;28;20246;-84
2021/03/08 01:15:37;;;;;;;10.13;9.00;;;;;;;4.11;46.39;98187.81;8381286;28;20265;-84
2021/03/08 01:19:39;;;;;;;9.83;8.80;;;;;;;4.19;46.09;98185.16;8384681;28;20208;-84
2021/03/08 01:23:41;;;;;;;10.63;8.83;;;;;;;4.23;45.97;98181.69;8347949;28;20206;-84
2021/03/08 01:27:44;;;;;;;11.03;9.27;;;;;;;4.16;46.13;98177.53;8382927;28;20230;-84
2021/03/08 01:31:46;;;;;;;11.87;9.57;;;;;;;4.19;45.51;98186.00;8398782;28;20223;-83
2021/03/08 01:35:48;;;;;;;11.83;9.57;;;;;;;4.15;45.68;98186.06;8400828;28;20211;-83
2021/03/08 01:39:52;;;;;;;10.73;9.73;;;;;;;3.99;46.04;98176.03;8401381;28;20196;-84
2021/03/08 01:43:55;;;;;;;13.23;9.00;;;;;;;4.17;45.97;98179.19;8400551;28;20199;-84
2021/03/08 01:47:57;;;;;;;11.23;8.80;;;;;;;4.10;46.26;98174.16;8377431;28;20718;-83
2021/03/08 01:52:00;;;;;;;9.70;8.80;;;;;;;4.00;45.76;98161.50;8370062;28;20207;-83
2021/03/08 01:56:05;;;;;;;10.67;9.57;;;;;;;3.99;46.32;98163.22;8371077;28;20206;-83
2021/03/08 02:00:10;;;;;;;10.27;9.17;;;;;;;3.90;45.96;98158.25;8369700;28;20230;-83
2021/03/08 02:04:12;;;;;;;13.70;9.90;;;;;;;3.88;46.43;98154.84;8370096;28;20257;-84
2021/03/08 02:08:17;;;;;;;12.73;9.20;;;;;;;3.88;46.19;98153.16;8369859;28;20529;-84
2021/03/08 02:12:23;;;;;;;11.03;8.87;;;;;;;3.70;46.28;98154.25;8370574;28;20699;-83
2021/03/08 02:16:30;;;;;;;10.33;9.23;;;;;;;3.61;46.48;98151.81;8369893;28;20203;-84
2021/03/08 02:20:47;;;;;;;11.13;9.70;;;;;;;3.55;46.78;98141.66;8369302;28;20204;-83
2021/03/08 02:25:04;;;;;;;9.73;8.83;;;;;;;3.60;46.33;98142.44;8367789;28;20227;-83
2021/03/08 02:29:48;;;;;;;10.17;9.07;;;;;;;3.64;46.52;98138.97;8369441;28;20188;-83
2021/03/08 02:33:53;;;;;;;10.73;9.27;;;;;;;3.65;45.99;98143.22;8237102;28;20202;-82
2021/03/08 02:37:57;;;;;;;9.97;8.97;;;;;;;3.49;46.39;98142.59;8304657;28;20215;-82
2021/03/08 02:42:00;;;;;;;11.00;9.67;;;;;;;3.51;46.29;98128.03;8371890;28;20204;-82
2021/03/08 02:46:07;;;;;;;11.17;9.53;;;;;;;3.48;46.63;98132.34;8370905;28;20219;-82
2021/03/08 02:50:13;;;;;;;10.77;9.57;;;;;;;3.46;46.05;98140.06;8372237;28;20552;-82
2021/03/08 02:54:16;;;;;;;11.10;9.63;;;;;;;3.25;46.72;98137.78;8372832;28;20692;-83
2021/03/08 02:58:18;;;;;;;13.17;9.90;;;;;;;3.41;46.62;98154.66;8375620;28;20624;-83
2021/03/08 03:02:36;;;;;;;11.43;9.03;;;;;;;3.45;46.74;98142.66;8340205;28;20208;-83
2021/03/08 03:06:40;;;;;;;11.47;9.20;;;;;;;3.39;47.00;98152.94;8341436;28;20220;-82
2021/03/08 03:10:42;;;;;;;11.10;9.50;;;;;;;3.30;46.92;98162.44;8341295;28;20227;-83
2021/03/08 03:14:45;;;;;;;10.13;9.13;;;;;;;3.22;47.43;98158.28;8347126;28;20199;-83
2021/03/08 03:18:50;;;;;;;11.57;9.47;;;;;;;3.20;47.79;98163.44;8367659;28;20207;-82
2021/03/08 03:22:54;;;;;;;11.60;10.00;;;;;;;3.28;47.90;98163.34;8319252;28;20279;-82
2021/03/08 03:26:58;;;;;;;11.83;9.30;;;;;;;3.29;47.93;98168.44;8336206;28;20240;-82
2021/03/08 03:31:00;;;;;;;12.10;9.70;;;;;;;3.16;48.57;98166.03;8339588;28;20547;-82
2021/03/08 03:35:04;;;;;;;10.53;9.43;;;;;;;3.24;47.85;98164.25;8332393;28;20207;-82
2021/03/08 03:39:09;;;;;;;10.37;9.23;;;;;;;3.12;47.91;98168.63;8314681;28;20201;-82
2021/03/08 03:43:11;;;;;;;11.77;10.17;;;;;;;3.06;47.85;98172.97;8333482;28;20199;-82
2021/03/08 03:47:14;;;;;;;10.73;9.50;;;;;;;3.08;48.01;98173.78;8333145;28;20235;-83
2021/03/08 03:51:17;;;;;;;12.70;9.60;;;;;;;3.09;48.16;98173.78;8332850;28;20208;-83
2021/03/08 03:55:21;;;;;;;11.83;9.77;;;;;;;3.04;47.99;98178.09;8332933;28;20209;-82
2021/03/08 03:59:24;;;;;;;10.40;9.30;;;;;;;3.00;48.00;98184.09;8337089;28;20217;-83
2021/03/08 04:03:31;;;;;;;11.40;10.20;;;;;;;3.02;47.75;98191.78;8338956;28;20235;-82
2021/03/08 04:07:34;;;;;;;10.57;8.97;;;;;;;3.04;47.41;98184.94;8339692;28;20224;-82
2021/03/08 04:11:39;;;;;;;12.53;9.73;;;;;;;3.05;47.69;98184.06;8339211;28;20251;-83
2021/03/08 04:15:42;;;;;;;10.63;9.53;;;;;;;2.93;47.94;98185.91;8339786;28;20196;-83
2021/03/08 04:19:44;;;;;;;10.90;9.80;;;;;;;2.80;47.99;98197.13;8322104;28;20211;-84
2021/03/08 04:23:47;;;;;;;12.50;10.53;;;;;;;2.88;48.46;98202.16;8329977;28;20220;-84
2021/03/08 04:27:51;;;;;;;11.00;9.90;;;;;;;2.78;47.44;98200.53;8322164;28;20227;-84
2021/03/08 04:31:53;;;;;;;10.97;9.80;;;;;;;2.73;47.68;98208.25;8344582;28;20208;-86
2021/03/08 04:35:55;;;;;;;11.63;10.13;;;;;;;2.86;47.39;98207.28;8345259;28;20197;-84
2021/03/08 04:39:58;;;;;;;12.47;10.53;;;;;;;2.80;47.60;98204.78;8327013;28;20208;-84
2021/03/08 04:44:02;;;;;;;13.13;10.57;;;;;;;2.81;47.66;98216.69;8326792;28;20208;-85
2021/03/08 04:48:05;;;;;;;11.17;9.97;;;;;;;2.72;47.89;98212.53;8346166;28;20232;-85
2021/03/08 04:52:09;;;;;;;13.63;10.20;;;;;;;2.70;47.99;98209.16;8352508;28;20580;-85
2021/03/08 04:56:11;;;;;;;11.33;10.13;;;;;;;2.73;47.88;98206.53;8345255;28;20192;-85
2021/03/08 05:00:15;;;;;;;11.47;9.93;;;;;;;2.73;47.40;98206.53;8342752;28;20208;-82
2021/03/08 05:04:19;;;;;;;13.10;10.73;;;;;;;2.73;47.70;98213.38;8341780;28;20196;-83
2021/03/08 05:08:21;;;;;;;12.00;10.37;;;;;;;2.64;47.35;98210.88;8340819;28;20231;-82
2021/03/08 05:12:24;;;;;;;14.30;10.67;;;;;;;2.58;47.62;98208.41;8339716;28;20224;-82
2021/03/08 05:16:28;;;;;;;13.03;10.23;;;;;;;2.53;47.64;98211.84;8342178;28;20208;-84
2021/03/08 05:20:31;;;;;;;11.70;10.50;;;;;;;2.59;47.42;98220.31;8341750;28;20200;-83
2021/03/08 05:24:33;;;;;;;12.93;10.80;;;;;;;2.69;47.66;98216.81;8343162;28;20208;-83
2021/03/08 05:28:36;;;;;;;12.20;10.77;;;;;;;2.44;47.98;98214.47;8344053;28;20262;-83
2021/03/08 05:32:43;;;;;;;12.83;10.80;;;;;;;2.43;48.26;98206.81;8311860;28;20200;-84
2021/03/08 05:36:49;;;;;;;14.53;11.37;;;;;;;2.53;48.10;98211.84;8364785;28;20200;-82
2021/03/08 05:40:57;;;;;;;14.20;11.33;;;;;;;2.49;48.09;98214.41;8340385;28;20207;-83
2021/03/08 05:45:01;;;;;;;14.60;12.17;;;;;;;2.56;48.30;98218.63;8341730;28;20243;-82
2021/03/08 05:49:26;;;;;;;14.03;11.90;;;;;;;2.48;48.68;98222.97;8340977;28;20604;-82
2021/03/08 05:53:50;;;;;;;15.07;12.07;;;;;;;2.45;48.75;98228.94;8339046;28;20239;-82
2021/03/08 05:58:13;;;;;;;13.80;11.40;;;;;;;2.47;49.06;98232.31;8306456;28;20533;-83
2021/03/08 06:02:41;;;;;;;15.20;11.90;;;;;;;2.43;49.05;98234.94;8343547;28;20188;-82
2021/03/08 06:07:21;;;;;;;12.97;11.53;;;;;;;2.57;49.30;98240.78;8336507;28;20676;-83
2021/03/08 06:11:24;;;;;;;14.63;12.30;;;;;;;2.52;49.35;98251.03;8336639;28;20240;-83
2021/03/08 06:15:28;;;;;;;16.00;11.73;;;;;;;2.69;49.32;98260.31;8337569;28;20204;-83
2021/03/08 06:19:30;;;;;;;13.47;11.30;;;;;;;2.67;50.04;98259.47;8337599;28;20212;-83
2021/03/08 06:23:34;;;;;;;12.43;11.00;;;;;;;2.78;49.12;98260.22;8335750;28;20208;-83
2021/03/08 06:27:37;;;;;;;14.00;11.73;;;;;;;2.72;49.20;98256.00;8336387;28;20224;-82
2021/03/08 06:31:39;;;;;;;16.70;12.00;;;;;;;2.81;49.29;98274.69;8340530;28;20305;-83
2021/03/08 06:35:41;;;;;;;13.77;11.90;;;;;;;2.97;49.50;98281.38;8337836;28;20652;-82
2021/03/08 06:39:45;;;;;;;13.33;11.93;;;;;;;2.89;49.68;98284.00;8339488;28;20274;-83
2021/03/08 06:43:47;;;;;;;13.60;11.80;;;;;;;3.10;49.37;98284.66;8336240;28;20200;-81
2021/03/08 06:47:50;;;;;;;16.03;12.13;;;;;;;3.01;49.65;98280.50;8335722;28;20212;-82
2021/03/08 06:52:06;;;;;;;13.57;12.17;;;;;;;3.08;50.00;98288.94;8335397;28;20232;-81
2021/03/08 06:56:18;;;;;;;33.77;14.60;;;;;;;6.08;79.79;98299.91;8320039;28;20208;-82
2021/03/08 07:00:20;;;;;;;17.07;12.33;;;;;;;7.05;52.06;98308.00;8334915;28;20200;-81
2021/03/08 07:04:23;;;;;;;19.95;13.60;;;;;;;5.33;44.17;98303.88;8332880;28;20890;-81
2021/03/08 07:08:25;;;;;;;16.27;12.13;;;;;;;4.60;46.25;98301.66;8337579;28;20224;-81
2021/03/08 07:12:28;;;;;;;15.20;11.97;;;;;;;4.54;46.60;98304.31;8340653;28;20236;-81
2021/03/08 07:16:35;;;;;;;13.80;12.20;;;;;;;4.53;46.64;98305.16;8308306;28;20196;-81
2021/03/08 07:20:37;;;;;;;15.17;12.90;;;;;;;4.35;47.31;98304.56;8319080;28;20201;-81
2021/03/08 07:24:56;;;;;;;19.40;13.70;;;;;;;4.97;46.01;98299.38;8328954;28;20203;-81
2021/03/08 07:29:12;;;;;;;16.30;14.13;;;;;;;5.21;45.38;98290.38;8336209;28;20201;-81
2021/03/08 07:33:15;;;;;;;15.10;12.07;;;;;;;5.09;45.43;98288.88;8339986;28;20220;-81
2021/03/08 07:37:17;;;;;;;16.20;12.23;;;;;;;6.17;44.51;98315.13;8324515;28;20208;-81
2021/03/08 07:41:20;;;;;;;12.37;10.60;;;;;;;6.00;44.51;98322.34;8330077;28;20199;-81
2021/03/08 07:45:38;;;;;;;12.23;10.17;;;;;;;6.38;44.15;98318.97;8362955;28;20223;-81
2021/03/08 07:49:40;;;;;;;14.50;10.23;;;;;;;6.18;44.46;98321.13;8337729;28;20236;-82
2021/03/08 07:53:42;;;;;;;11.47;9.57;;;;;;;6.10;45.12;98315.31;8366098;28;20196;-82
2021/03/08 07:57:44;;;;;;;14.80;10.60;;;;;;;6.07;45.00;98327.34;8340650;28;20208;-83
2021/03/08 08:01:49;;;;;;;11.63;9.80;;;;;;;6.70;44.73;98326.84;8343111;28;20641;-82
2021/03/08 08:05:56;;;;;;;10.43;9.20;;;;;;;6.83;42.83;98326.53;8344387;28;20220;-83
2021/03/08 08:10:03;;;;;;;11.90;9.10;;;;;;;6.69;43.49;98332.88;8346699;28;20235;-84
2021/03/08 08:14:05;;;;;;;12.90;9.97;;;;;;;6.41;43.93;98330.91;8353676;28;20243;-82
2021/03/08 08:18:08;;;;;;;10.97;9.40;;;;;;;6.50;44.47;98325.56;8344506;28;20207;-82
2021/03/08 08:22:14;;;;;;;13.20;10.10;;;;;;;6.19;44.69;98333.94;8341294;28;20697;-81
2021/03/08 08:26:18;;;;;;;14.07;10.57;;;;;;;6.01;45.01;98330.00;8342794;28;20255;-81
2021/03/08 08:30:23;;;;;;;11.90;10.07;;;;;;;6.35;44.96;98333.63;8343449;28;20204;-82
2021/03/08 08:34:33;;;;;;;13.10;10.17;;;;;;;6.38;43.89;98324.13;8344157;28;20201;-83
2021/03/08 08:38:35;;;;;;;10.90;8.70;;;;;;;6.72;44.24;98331.09;8342441;28;20205;-81
2021/03/08 08:42:37;;;;;;;14.73;8.50;;;;;;;6.61;44.32;98338.22;8342620;28;20625;-81
2021/03/08 08:46:40;;;;;;;11.13;9.03;;;;;;;6.71;44.08;98326.81;8342546;28;20221;-82
2021/03/08 08:50:45;;;;;;;12.87;9.17;;;;;;;6.69;44.78;98326.00;8336503;28;20232;-81
2021/03/08 08:54:51;;;;;;;13.90;9.60;;;;;;;6.78;43.76;98330.94;8340348;28;20245;-80
2021/03/08 08:58:53;;;;;;;12.30;9.00;;;;;;;6.88;44.49;98331.56;8340684;28;20193;-79
2021/03/08 09:02:56;;;;;;;9.67;8.57;;;;;;;6.96;44.15;98323.66;8340633;28;20603;-80
2021/03/08 09:07:01;;;;;;;10.60;9.07;;;;;;;6.88;44.29;98329.00;8342515;28;20237;-80
2021/03/08 09:11:03;;;;;;;12.03;9.00;;;;;;;7.18;43.54;98332.56;8341539;28;20228;-81
2021/03/08 09:15:08;;;;;;;10.87;8.20;;;;;;;7.00;43.52;98315.81;8339859;28;20641;-81
2021/03/08 09:19:20;;;;;;;10.30;8.20;;;;;;;7.02;44.14;98338.97;8340114;28;20193;-82
2021/03/08 09:23:24;;;;;;;9.47;8.10;;;;;;;7.28;43.87;98343.47;8337626;28;20212;-81
2021/03/08 09:27:27;;;;;;;9.37;7.80;;;;;;;7.25;44.68;98348.69;8348066;28;20250;-82
2021/03/08 09:31:29;;;;;;;10.37;8.07;;;;;;;7.40;44.16;98330.28;8341377;28;20224;-81
2021/03/08 09:35:32;;;;;;;8.67;7.77;;;;;;;7.24;44.63;98345.28;8347030;28;20204;-81
2021/03/08 09:39:48;;;;;;;9.47;7.97;;;;;;;7.37;44.18;98335.53;8338824;28;20280;-81
2021/03/08 09:43:57;;;;;;;10.50;8.93;;;;;;;7.33;44.10;98340.78;8338174;28;20223;-81
2021/03/08 09:47:59;;;;;;;10.53;8.27;;;;;;;7.38;43.30;98346.66;8341746;28;20247;-83
2021/03/08 09:52:09;;;;;;;10.07;8.27;;;;;;;7.44;44.73;98349.94;8327865;28;20193;-82
2021/03/08 09:56:14;;;;;;;9.50;8.40;;;;;;;7.68;43.17;98357.91;8342272;28;20200;-84
2021/03/08 10:00:18;;;;;;;9.40;8.40;;;;;;;7.68;42.46;98350.19;8344072;28;20200;-82
2021/03/08 10:04:20;;;;;;;9.93;8.93;;;;;;;7.78;42.70;98351.63;8341723;28;20205;-82
2021/03/08 10:08:29;;;;;;;11.27;9.77;;;;;;;7.95;42.25;98353.75;8338588;28;20224;-82
2021/03/08 10:12:32;;;;;;;11.03;9.90;;;;;;;8.03;41.54;98362.13;8339037;28;20244;-84
2021/03/08 10:16:34;;;;;;;12.67;10.40;;;;;;;8.13;42.31;98348.94;8340199;28;20208;-82
2021/03/08 10:20:47;;;;;;;11.20;9.90;;;;;;;8.33;41.48;98359.56;8340578;28;20220;-82
2021/03/08 10:24:50;;;;;;;16.53;10.63;;;;;;;8.23;41.88;98366.72;8342570;28;20588;-82
2021/03/08 10:28:53;;;;;;;12.47;9.77;;;;;;;8.26;42.21;98363.19;8342791;28;20252;-81
2021/03/08 10:33:01;;;;;;;12.70;10.40;;;;;;;8.31;42.01;98369.06;8345161;28;20205;-82
2021/03/08 10:37:03;;;;;;;14.80;10.27;;;;;;;8.49;42.42;98365.16;8344889;28;20284;-82
2021/03/08 10:41:06;;;;;;;14.97;10.60;;;;;;;8.77;41.55;98366.91;8342349;28;20209;-82
2021/03/08 10:45:12;;;;;;;13.83;10.07;;;;;;;8.84;41.26;98360.66;8342043;28;20220;-82
2021/03/08 10:49:14;;;;;;;14.93;10.37;;;;;;;8.88;40.75;98361.41;8342758;28;20238;-82
2021/03/08 10:53:17;;;;;;;12.17;10.50;;;;;;;8.76;41.37;98358.31;8342359;28;20208;-82
2021/03/08 10:57:20;;;;;;;10.60;9.50;;;;;;;8.66;41.85;98343.13;8342225;28;20204;-81
2021/03/08 11:01:24;;;;;;;12.10;10.30;;;;;;;8.64;41.46;98340.59;8342758;28;20661;-82
2021/03/08 11:05:27;;;;;;;11.90;9.53;;;;;;;8.77;42.07;98346.25;8342603;28;20208;-82
2021/03/08 11:09:29;;;;;;;13.83;11.53;;;;;;;8.68;42.20;98355.13;8346822;28;20291;-83
2021/03/08 11:13:32;;;;;;;13.53;10.67;;;;;;;8.96;41.60;98349.94;8349987;28;20239;-82
2021/03/08 11:17:39;;;;;;;12.90;10.73;;;;;;;8.85;42.20;98346.00;8348355;28;20200;-81
2021/03/08 11:21:45;;;;;;;13.13;10.63;;;;;;;9.14;41.88;98340.75;8351499;28;20234;-83
2021/03/08 11:25:47;;;;;;;16.90;11.13;;;;;;;8.98;41.86;98339.56;8334976;28;20232;-82
2021/03/08 11:29:57;;;;;;;17.33;11.00;;;;;;;9.22;41.29;98332.75;8357606;28;20226;-83
2021/03/08 11:34:00;;;;;;;13.67;10.90;;;;;;;9.28;41.59;98336.88;8356142;28;20201;-83
2021/03/08 11:38:05;;;;;;;15.30;11.70;;;;;;;9.17;41.75;98340.63;8370070;28;20204;-82
2021/03/08 11:42:07;;;;;;;13.10;10.77;;;;;;;9.40;40.92;98344.22;8368604;28;20230;-82
2021/03/08 11:46:09;;;;;;;16.27;11.20;;;;;;;9.12;41.33;98337.38;8366363;28;20236;-80
2021/03/08 11:50:12;;;;;;;11.83;10.60;;;;;;;8.97;41.92;98336.13;8368251;28;20212;-80
2021/03/08 11:54:14;;;;;;;21.43;12.77;;;;;;;9.14;42.64;98333.00;8364648;28;20539;-81
2021/03/08 11:58:18;;;;;;;16.37;10.60;;;;;;;8.83;42.17;98332.28;8345593;28;20212;-83
2021/03/08 12:02:20;;;;;;;12.40;10.23;;;;;;;8.91;42.09;98331.16;8344919;28;20562;-81
2021/03/08 12:06:23;;;;;;;13.70;9.93;;;;;;;8.70;41.91;98329.25;8343564;28;20216;-80
2021/03/08 12:10:25;;;;;;;14.67;9.23;;;;;;;8.61;42.59;98317.47;8333317;28;20237;-80
2021/03/08 12:14:26;;;;;;;22.13;10.67;;;;;;;8.94;42.05;98322.47;8341813;28;20286;-80
2021/03/08 12:18:28;;;;;;;14.43;10.67;;;;;;;8.36;42.12;98315.59;8344291;28;20204;-80
2021/03/08 12:22:32;;;;;;;12.33;10.27;;;;;;;8.27;43.83;98315.88;8342962;28;20279;-80
2021/03/08 12:26:34;;;;;;;11.30;9.60;;;;;;;8.42;43.70;98314.59;8343441;28;20228;-81
2021/03/08 12:30:36;;;;;;;12.87;10.30;;;;;;;8.64;43.29;98312.19;8342449;28;20209;-82
2021/03/08 12:34:37;;;;;;;11.73;9.30;;;;;;;8.63;43.30;98307.94;8315689;28;20201;-82
2021/03/08 12:38:40;;;;;;;14.70;10.40;;;;;;;8.68;43.27;98300.03;8301316;28;20578;-82
2021/03/08 12:42:43;;;;;;;13.70;10.27;;;;;;;8.43;43.78;98298.22;8342147;28;20210;-83
2021/03/08 12:46:45;;;;;;;11.47;9.20;;;;;;;8.77;43.14;98297.19;8341340;28;20224;-83
2021/03/08 12:50:48;;;;;;;10.17;7.97;;;;;;;8.68;42.07;98303.50;8341216;28;20200;-83
2021/03/08 12:54:51;;;;;;;13.00;9.70;;;;;;;8.67;43.39;98301.78;8324672;28;20567;-83
2021/03/08 12:58:53;;;;;;;11.30;8.07;;;;;;;8.56;42.87;98291.78;8325636;28;20209;-83
2021/03/08 13:02:55;;;;;;;11.57;8.73;;;;;;;8.50;42.78;98281.66;8343319;28;20215;-83
2021/03/08 13:06:58;;;;;;;11.90;8.43;;;;;;;8.65;42.48;98284.66;8344220;28;20220;-83
2021/03/08 13:11:01;;;;;;;16.93;9.40;;;;;;;8.73;42.53;98283.50;8326144;28;20712;-83
2021/03/08 13:15:04;;;;;;;11.80;8.90;;;;;;;8.50;43.33;98273.91;8343455;28;20197;-83
2021/03/08 13:19:10;;;;;;;15.57;8.57;;;;;;;8.74;42.78;98279.22;8344046;28;20195;-83
2021/03/08 13:23:12;;;;;;;32.10;9.90;;;;;;;8.64;42.54;98270.88;8344492;28;20529;-82
2021/03/08 13:27:16;;;;;;;14.70;9.10;;;;;;;8.33;42.80;98270.97;8344413;28;20224;-84
2021/03/08 13:31:18;;;;;;;15.30;8.80;;;;;;;8.31;43.40;98278.75;8341564;28;20223;-84
2021/03/08 13:35:20;;;;;;;10.87;8.50;;;;;;;8.28;43.60;98280.59;8342613;28;20204;-84
2021/03/08 13:39:22;;;;;;;10.93;8.70;;;;;;;8.49;43.51;98279.13;8342006;28;20211;-83
2021/03/08 13:43:26;;;;;;;9.63;8.30;;;;;;;8.34;43.70;98282.97;8341740;28;20205;-83
2021/03/08 13:47:27;;;;;;;11.27;8.37;;;;;;;8.37;44.00;98281.16;8324079;28;20251;-83
2021/03/08 13:51:31;;;;;;;12.20;7.87;;;;;;;8.26;43.74;98272.88;8343193;28;20200;-85
2021/03/08 13:55:33;;;;;;;12.33;7.40;;;;;;;8.41;43.42;98266.41;8326650;28;20212;-85
2021/03/08 13:59:37;;;;;;;9.10;7.17;;;;;;;8.17;43.70;98279.19;8325468;28;20200;-85
2021/03/08 14:03:39;;;;;;;8.63;7.73;;;;;;;8.40;43.66;98282.81;8345831;28;20257;-85
2021/03/08 14:07:42;;;;;;;14.77;8.10;;;;;;;8.38;44.04;98275.13;8341519;28;20239;-84
2021/03/08 14:11:45;;;;;;;10.27;7.50;;;;;;;8.33;44.18;98279.56;8345592;28;20232;-84
2021/03/08 14:15:48;;;;;;;8.57;7.20;;;;;;;8.32;44.13;98275.31;8345001;28;20204;-83
2021/03/08 14:19:50;;;;;;;11.23;7.17;;;;;;;8.39;44.32;98270.78;8345249;28;20211;-84
2021/03/08 14:23:52;;;;;;;9.10;7.77;;;;;;;8.50;43.67;98271.34;8346284;28;20208;-84
2021/03/08 14:27:54;;;;;;;9.30;7.13;;;;;;;8.54;43.61;98270.34;8345297;28;20212;-85
2021/03/08 14:31:57;;;;;;;28.17;18.07;;;;;;;8.45;43.99;98268.03;8342993;28;20224;-85
2021/03/08 14:36:00;;;;;;;10.43;8.17;;;;;;;8.49;44.20;98266.22;8344506;28;20200;-85
2021/03/08 14:40:04;;;;;;;11.37;8.00;;;;;;;8.37;44.33;98252.75;8344706;28;20660;-84
2021/03/08 14:44:08;;;;;;;8.67;7.47;;;;;;;8.66;43.75;98269.09;8344128;28;20197;-84
2021/03/08 14:48:11;;;;;;;10.80;7.17;;;;;;;8.50;43.90;98270.50;8343025;28;20223;-84
2021/03/08 14:52:14;;;;;;;13.10;8.03;;;;;;;8.53;44.10;98262.63;8343897;28;20203;-85
2021/03/08 14:56:16;;;;;;;11.83;7.80;;;;;;;8.55;44.07;98253.13;8347336;28;20204;-86
2021/03/08 15:00:18;;;;;;;10.97;7.80;;;;;;;8.43;44.46;98256.09;8342767;28;20683;-83
2021/03/08 15:04:21;;;;;;;9.30;7.90;;;;;;;8.41;44.67;98257.00;8341240;28;20212;-83
2021/03/08 15:08:23;;;;;;;10.50;8.63;;;;;;;8.34;44.67;98252.88;8339986;28;20286;-83
2021/03/08 15:12:26;;;;;;;8.70;7.40;;;;;;;8.37;44.71;98249.34;8340393;28;20240;-83
2021/03/08 15:16:29;;;;;;;10.10;8.97;;;;;;;8.41;44.53;98251.84;8340369;28;20196;-84
2021/03/08 15:20:37;;;;;;;10.27;8.10;;;;;;;8.41;44.31;98254.41;8340283;28;20223;-85
2021/03/08 15:24:39;;;;;;;9.67;8.33;;;;;;;8.53;44.59;98252.31;8341552;28;20654;-84
2021/03/08 15:28:42;;;;;;;7.73;6.70;;;;;;;8.41;44.37;98244.09;8321718;28;20235;-84
2021/03/08 15:32:44;;;;;;;9.87;6.57;;;;;;;8.47;44.25;98248.19;8306261;28;20205;-83
2021/03/08 15:36:48;;;;;;;6.80;6.10;;;;;;;8.48;45.40;98243.88;8314439;28;20201;-83
2021/03/08 15:40:49;;;;;;;8.80;5.90;;;;;;;8.40;45.05;98250.09;8339196;28;20209;-83
2021/03/08 15:44:51;;;;;;;7.23;6.53;;;;;;;8.23;45.57;98242.88;8339712;28;20208;-84
2021/03/08 15:48:53;;;;;;;6.97;5.50;;;;;;;8.31;45.70;98250.38;8341151;28;20581;-84
2021/03/08 15:52:56;;;;;;;9.73;6.00;;;;;;;8.42;45.50;98247.50;8340818;28;20291;-86
2021/03/08 15:56:58;;;;;;;4.60;4.20;;;;;;;8.33;44.62;98240.00;8334174;28;20204;-86
2021/03/08 16:01:01;;;;;;;9.00;4.97;;;;;;;8.19;44.22;98256.75;8350872;28;20204;-86
2021/03/08 16:05:04;;;;;;;5.63;5.03;;;;;;;8.05;45.10;98251.16;8334429;28;20201;-86
2021/03/08 16:09:07;;;;;;;8.63;4.87;;;;;;;8.05;44.88;98240.84;8355142;28;20235;-84
2021/03/08 16:13:09;;;;;;;6.63;5.53;;;;;;;7.97;45.35;98255.69;8350591;28;20243;-85
2021/03/08 16:17:11;;;;;;;10.13;6.70;;;;;;;7.97;46.04;98251.38;8345445;28;20200;-83
2021/03/08 16:21:14;;;;;;;9.70;7.73;;;;;;;8.03;46.12;98245.19;8326091;28;20251;-84
2021/03/08 16:25:17;;;;;;;11.17;8.50;;;;;;;7.96;46.24;98249.72;8343260;28;20205;-84
2021/03/08 16:29:19;;;;;;;11.53;8.80;;;;;;;7.89;46.21;98232.72;8341176;28;20228;-83
2021/03/08 16:33:22;;;;;;;10.40;8.50;;;;;;;7.97;46.33;98255.69;8345215;28;20208;-84
2021/03/08 16:37:24;;;;;;;9.40;8.40;;;;;;;8.01;46.79;98249.56;8326592;28;20205;-83
2021/03/08 16:41:27;;;;;;;10.03;8.63;;;;;;;7.96;46.52;98235.97;8315827;28;20205;-84
2021/03/08 16:45:29;;;;;;;11.63;8.47;;;;;;;7.89;46.99;98242.19;8342873;28;20228;-85
2021/03/08 16:49:31;;;;;;;9.17;8.17;;;;;;;8.00;46.64;98245.31;8347393;28;20224;-84
2021/03/08 16:53:33;;;;;;;12.43;7.93;;;;;;;7.85;46.89;98241.44;8348051;28;20197;-84
2021/03/08 16:57:39;;;;;;;9.90;7.77;;;;;;;7.87;46.87;98246.56;8366346;28;20228;-82
2021/03/08 17:01:41;;;;;;;9.80;7.57;;;;;;;7.88;47.09;98251.69;8345053;28;20215;-84
2021/03/08 17:05:43;;;;;;;9.47;7.53;;;;;;;7.84;47.42;98247.47;8355222;28;20314;-84
2021/03/08 17:09:45;;;;;;;9.50;7.93;;;;;;;7.77;47.38;98249.41;8356739;28;20224;-84
2021/03/08 17:13:55;;;;;;;11.03;7.53;;;;;;;7.77;47.35;98248.56;8366856;28;20757;-83
2021/03/08 17:17:57;;;;;;;10.87;8.17;;;;;;;7.75;47.24;98258.91;8306467;28;20232;-84
2021/03/08 17:21:59;;;;;;;9.33;8.00;;;;;;;7.69;47.62;98260.78;8331641;28;20221;-84
2021/03/08 17:26:01;;;;;;;9.83;8.17;;;;;;;7.67;47.80;98268.56;8340960;28;20200;-83
2021/03/08 17:30:08;;;;;;;12.50;11.00;;;;;;;7.59;47.76;98270.53;8342140;28;20253;-84
2021/03/08 17:34:10;;;;;;;12.47;11.17;;;;;;;7.61;47.80;98267.00;8331561;28;20227;-83
2021/03/08 17:38:12;;;;;;;17.23;12.67;;;;;;;7.59;47.93;98273.09;8335772;28;20200;-85
2021/03/08 17:42:13;;;;;;;13.40;10.10;;;;;;;7.57;47.93;98280.03;8322529;28;20205;-84
2021/03/08 17:46:16;;;;;;;10.97;9.57;;;;;;;7.55;48.06;98276.66;8328867;28;20207;-84
2021/03/08 17:50:19;;;;;;;12.33;9.53;;;;;;;7.55;48.37;98276.66;8318119;28;20193;-84
2021/03/08 17:54:22;;;;;;;14.43;9.70;;;;;;;7.48;48.39;98263.06;8319252;28;20212;-84
2021/03/08 17:58:24;;;;;;;11.20;9.53;;;;;;;7.51;48.52;98287.94;8326443;28;20196;-84
2021/03/08 18:02:27;;;;;;;11.77;9.47;;;;;;;7.42;48.75;98282.16;8327130;28;20529;-83
2021/03/08 18:06:29;;;;;;;14.20;10.17;;;;;;;7.44;48.68;98284.66;8329306;28;20235;-84
2021/03/08 18:10:31;;;;;;;16.93;10.63;;;;;;;7.45;48.58;98286.38;8323363;28;20216;-84
2021/03/08 18:14:40;;;;;;;11.07;9.37;;;;;;;7.18;48.79;98275.91;8318352;28;20205;-84
2021/03/08 18:18:44;;;;;;;13.77;9.67;;;;;;;7.39;48.50;98283.97;8325199;28;20207;-85
2021/03/08 18:22:47;;;;;;;13.53;10.47;;;;;;;7.40;48.53;98285.63;8318628;28;20212;-81
2021/03/08 18:26:48;;;;;;;13.93;12.43;;;;;;;7.40;48.47;98289.03;8350039;28;20228;-81
2021/03/08 18:30:50;;;;;;;11.60;10.40;;;;;;;7.34;48.47;98285.81;8341475;28;20212;-82
2021/03/08 18:34:54;;;;;;;15.27;11.73;;;;;;;7.35;48.43;98290.91;8339588;28;20200;-83
2021/03/08 18:38:56;;;;;;;21.53;14.37;;;;;;;7.24;48.96;98291.19;8356019;28;20199;-83
2021/03/08 18:42:58;;;;;;;16.20;12.47;;;;;;;7.29;48.93;98285.06;8364639;28;20672;-84
2021/03/08 18:47:00;;;;;;;13.83;11.87;;;;;;;7.21;49.19;98277.53;8339749;28;20676;-83
2021/03/08 18:51:04;;;;;;;14.80;12.20;;;;;;;7.17;49.32;98286.22;8339821;28;20231;-84
2021/03/08 18:55:08;;;;;;;14.20;12.70;;;;;;;7.19;49.45;98284.47;8339490;28;20679;-83
2021/03/08 18:59:10;;;;;;;15.73;11.83;;;;;;;7.14;49.67;98288.88;8338681;28;20300;-85
2021/03/08 19:03:12;;;;;;;16.27;9.83;;;;;;;7.11;50.29;98276.09;8337847;28;20200;-83
2021/03/08 19:07:16;;;;;;;13.00;9.03;;;;;;;7.01;50.25;98281.47;8340285;28;20227;-83